sensor_id;sensor_type;location;lat;lon;timestamp;P1;durP1;ratioP1;P2;durP2;ratioP2
51184;SDS011;37248;59.350;18.050;2022-08-01T00:01:02;2.13;;;1.20;;
51184;SDS011;37248;59.350;18.050;2022-08-01T00:03:27;1.80;;;1.20;;
51184;SDS011;37248;59.350;18.050;2022-08-01T00:05:52;1.50;;;1.13;;
51184;SDS011;37248;59.350;18.050;2022-08-01T00:08:17;1.63;;;1.30;;
51184;SDS011;37248;59.350;18.050;2022-08-01T00:10:43;1.40;;;1.10;;
51184;SDS011;37248;59.350;18.050;2022-08-01T00:13:08;1.33;;;1.10;;
51184;SDS011;37248;59.350;18.050;2022-08-01T00:15:33;1.60;;;1.27;;
51184;SDS011;37248;59.350;18.050;2022-08-01T00:17:59;2.00;;;1.20;;
51184;SDS011;37248;59.350;18.050;2022-08-01T00:20:24;1.77;;;1.20;;
51184;SDS011;37248;59.350;18.050;2022-08-01T00:22:49;1.53;;;1.10;;
51184;SDS011;37248;59.350;18.050;2022-08-01T00:25:14;1.73;;;0.90;;
51184;SDS011;37248;59.350;18.050;2022-08-01T00:27:40;1.40;;;0.97;;
51184;SDS011;37248;59.350;18.050;2022-08-01T00:30:05;1.37;;;1.03;;
51184;SDS011;37248;59.350;18.050;2022-08-01T00:32:31;1.35;;;1.10;;
51184;SDS011;37248;59.350;18.050;2022-08-01T00:34:56;1.23;;;0.93;;
51184;SDS011;37248;59.350;18.050;2022-08-01T00:37:21;1.23;;;0.93;;
51184;SDS011;37248;59.350;18.050;2022-08-01T00:39:47;1.40;;;0.85;;
51184;SDS011;37248;59.350;18.050;2022-08-01T00:42:12;1.80;;;1.07;;
51184;SDS011;37248;59.350;18.050;2022-08-01T00:44:38;1.20;;;0.90;;
51184;SDS011;37248;59.350;18.050;2022-08-01T00:47:03;1.60;;;1.00;;
51184;SDS011;37248;59.350;18.050;2022-08-01T00:49:29;1.20;;;0.90;;
51184;SDS011;37248;59.350;18.050;2022-08-01T00:51:54;1.30;;;0.80;;
51184;SDS011;37248;59.350;18.050;2022-08-01T00:54:20;1.50;;;1.10;;
51184;SDS011;37248;59.350;18.050;2022-08-01T00:56:45;1.30;;;0.90;;
51184;SDS011;37248;59.350;18.050;2022-08-01T00:59:11;1.03;;;0.87;;
51184;SDS011;37248;59.350;18.050;2022-08-01T01:01:36;1.50;;;1.03;;
51184;SDS011;37248;59.350;18.050;2022-08-01T01:04:02;2.20;;;1.10;;
51184;SDS011;37248;59.350;18.050;2022-08-01T01:11:32;1.10;;;0.93;;
51184;SDS011;37248;59.350;18.050;2022-08-01T01:14:04;1.33;;;0.90;;
51184;SDS011;37248;59.350;18.050;2022-08-01T01:16:32;1.20;;;0.93;;
51184;SDS011;37248;59.350;18.050;2022-08-01T01:19:00;1.40;;;1.00;;
51184;SDS011;37248;59.350;18.050;2022-08-01T01:21:35;0.82;;;0.80;;
51184;SDS011;37248;59.350;18.050;2022-08-01T01:29:49;0.88;;;0.80;;
51184;SDS011;37248;59.350;18.050;2022-08-01T01:31:56;1.40;;;1.00;;
51184;SDS011;37248;59.350;18.050;2022-08-01T01:34:23;1.67;;;1.03;;
51184;SDS011;37248;59.350;18.050;2022-08-01T01:36:49;1.47;;;0.90;;
51184;SDS011;37248;59.350;18.050;2022-08-01T01:39:15;1.08;;;0.82;;
51184;SDS011;37248;59.350;18.050;2022-08-01T01:41:41;2.17;;;0.83;;
51184;SDS011;37248;59.350;18.050;2022-08-01T01:44:07;0.90;;;0.73;;
51184;SDS011;37248;59.350;18.050;2022-08-01T01:46:34;0.93;;;0.82;;
51184;SDS011;37248;59.350;18.050;2022-08-01T01:49:00;1.13;;;0.83;;
51184;SDS011;37248;59.350;18.050;2022-08-01T01:51:26;1.03;;;0.70;;
51184;SDS011;37248;59.350;18.050;2022-08-01T01:53:52;1.30;;;0.87;;
51184;SDS011;37248;59.350;18.050;2022-08-01T01:56:18;0.90;;;0.80;;
51184;SDS011;37248;59.350;18.050;2022-08-01T01:58:44;1.67;;;0.75;;
51184;SDS011;37248;59.350;18.050;2022-08-01T02:01:10;1.08;;;0.82;;
51184;SDS011;37248;59.350;18.050;2022-08-01T02:03:36;1.13;;;0.70;;
51184;SDS011;37248;59.350;18.050;2022-08-01T02:06:02;1.67;;;0.73;;
51184;SDS011;37248;59.350;18.050;2022-08-01T02:08:29;1.10;;;0.90;;
51184;SDS011;37248;59.350;18.050;2022-08-01T02:10:54;1.38;;;0.93;;
51184;SDS011;37248;59.350;18.050;2022-08-01T02:13:38;0.90;;;0.68;;
51184;SDS011;37248;59.350;18.050;2022-08-01T02:16:05;1.27;;;0.77;;
51184;SDS011;37248;59.350;18.050;2022-08-01T02:18:32;1.27;;;0.80;;
51184;SDS011;37248;59.350;18.050;2022-08-01T02:20:57;1.00;;;0.80;;
51184;SDS011;37248;59.350;18.050;2022-08-01T02:23:23;2.50;;;0.87;;
51184;SDS011;37248;59.350;18.050;2022-08-01T02:25:49;1.53;;;0.90;;
51184;SDS011;37248;59.350;18.050;2022-08-01T02:28:17;1.15;;;0.75;;
51184;SDS011;37248;59.350;18.050;2022-08-01T02:30:44;1.20;;;0.80;;
51184;SDS011;37248;59.350;18.050;2022-08-01T02:33:24;0.98;;;0.70;;
51184;SDS011;37248;59.350;18.050;2022-08-01T02:35:50;1.20;;;0.70;;
51184;SDS011;37248;59.350;18.050;2022-08-01T02:38:17;1.30;;;0.82;;
51184;SDS011;37248;59.350;18.050;2022-08-01T02:40:43;1.13;;;0.90;;
51184;SDS011;37248;59.350;18.050;2022-08-01T02:43:10;1.05;;;0.70;;
51184;SDS011;37248;59.350;18.050;2022-08-01T02:45:37;1.63;;;0.70;;
51184;SDS011;37248;59.350;18.050;2022-08-01T02:48:13;1.07;;;0.67;;
51184;SDS011;37248;59.350;18.050;2022-08-01T02:50:42;1.23;;;0.67;;
51184;SDS011;37248;59.350;18.050;2022-08-01T02:53:07;1.80;;;0.70;;
51184;SDS011;37248;59.350;18.050;2022-08-01T02:55:35;0.73;;;0.57;;
51184;SDS011;37248;59.350;18.050;2022-08-01T02:58:01;1.08;;;0.57;;
51184;SDS011;37248;59.350;18.050;2022-08-01T03:00:27;1.10;;;0.63;;
51184;SDS011;37248;59.350;18.050;2022-08-01T03:02:53;0.68;;;0.60;;
51184;SDS011;37248;59.350;18.050;2022-08-01T03:05:20;1.48;;;0.60;;
51184;SDS011;37248;59.350;18.050;2022-08-01T03:07:45;0.98;;;0.60;;
51184;SDS011;37248;59.350;18.050;2022-08-01T03:10:10;1.00;;;0.80;;
51184;SDS011;37248;59.350;18.050;2022-08-01T03:12:36;1.23;;;0.70;;
51184;SDS011;37248;59.350;18.050;2022-08-01T03:15:02;0.87;;;0.60;;
51184;SDS011;37248;59.350;18.050;2022-08-01T03:17:29;1.00;;;0.70;;
51184;SDS011;37248;59.350;18.050;2022-08-01T03:19:55;0.77;;;0.50;;
51184;SDS011;37248;59.350;18.050;2022-08-01T03:22:23;1.00;;;0.68;;
51184;SDS011;37248;59.350;18.050;2022-08-01T03:24:50;0.95;;;0.65;;
51184;SDS011;37248;59.350;18.050;2022-08-01T03:27:16;0.70;;;0.50;;
51184;SDS011;37248;59.350;18.050;2022-08-01T03:29:43;1.03;;;0.70;;
51184;SDS011;37248;59.350;18.050;2022-08-01T03:32:09;0.90;;;0.60;;
51184;SDS011;37248;59.350;18.050;2022-08-01T03:34:35;0.77;;;0.60;;
51184;SDS011;37248;59.350;18.050;2022-08-01T03:39:27;1.40;;;0.50;;
51184;SDS011;37248;59.350;18.050;2022-08-01T03:41:58;0.77;;;0.52;;
51184;SDS011;37248;59.350;18.050;2022-08-01T03:44:25;1.23;;;0.60;;
51184;SDS011;37248;59.350;18.050;2022-08-01T03:46:54;0.90;;;0.60;;
51184;SDS011;37248;59.350;18.050;2022-08-01T03:49:22;1.00;;;0.52;;
51184;SDS011;37248;59.350;18.050;2022-08-01T03:51:48;1.20;;;0.60;;
51184;SDS011;37248;59.350;18.050;2022-08-01T03:54:14;0.85;;;0.55;;
51184;SDS011;37248;59.350;18.050;2022-08-01T03:56:40;1.03;;;0.60;;
51184;SDS011;37248;59.350;18.050;2022-08-01T03:59:06;0.50;;;0.40;;
51184;SDS011;37248;59.350;18.050;2022-08-01T04:01:32;0.80;;;0.60;;
51184;SDS011;37248;59.350;18.050;2022-08-01T04:03:58;0.77;;;0.60;;
51184;SDS011;37248;59.350;18.050;2022-08-01T04:06:24;0.70;;;0.47;;
51184;SDS011;37248;59.350;18.050;2022-08-01T04:08:49;0.70;;;0.50;;
51184;SDS011;37248;59.350;18.050;2022-08-01T04:11:24;0.88;;;0.57;;
51184;SDS011;37248;59.350;18.050;2022-08-01T04:13:51;1.00;;;0.50;;
51184;SDS011;37248;59.350;18.050;2022-08-01T04:16:16;0.93;;;0.50;;
51184;SDS011;37248;59.350;18.050;2022-08-01T04:18:41;1.40;;;0.60;;
51184;SDS011;37248;59.350;18.050;2022-08-01T04:21:07;0.80;;;0.40;;
51184;SDS011;37248;59.350;18.050;2022-08-01T04:23:32;0.87;;;0.50;;
51184;SDS011;37248;59.350;18.050;2022-08-01T04:25:59;1.90;;;0.50;;
51184;SDS011;37248;59.350;18.050;2022-08-01T04:28:26;0.70;;;0.50;;
51184;SDS011;37248;59.350;18.050;2022-08-01T04:30:52;1.10;;;0.50;;
51184;SDS011;37248;59.350;18.050;2022-08-01T04:33:19;0.80;;;0.47;;
51184;SDS011;37248;59.350;18.050;2022-08-01T04:35:45;1.42;;;0.40;;
51184;SDS011;37248;59.350;18.050;2022-08-01T04:38:11;0.60;;;0.43;;
51184;SDS011;37248;59.350;18.050;2022-08-01T04:40:37;1.15;;;0.43;;
51184;SDS011;37248;59.350;18.050;2022-08-01T04:43:03;0.70;;;0.60;;
51184;SDS011;37248;59.350;18.050;2022-08-01T04:45:28;1.40;;;0.60;;
51184;SDS011;37248;59.350;18.050;2022-08-01T04:47:54;0.97;;;0.47;;
51184;SDS011;37248;59.350;18.050;2022-08-01T04:50:19;0.70;;;0.40;;
51184;SDS011;37248;59.350;18.050;2022-08-01T04:52:46;1.30;;;0.50;;
51184;SDS011;37248;59.350;18.050;2022-08-01T04:55:12;1.27;;;0.60;;
51184;SDS011;37248;59.350;18.050;2022-08-01T04:57:39;1.00;;;0.53;;
51184;SDS011;37248;59.350;18.050;2022-08-01T05:00:05;2.10;;;0.40;;
51184;SDS011;37248;59.350;18.050;2022-08-01T05:02:31;0.85;;;0.47;;
51184;SDS011;37248;59.350;18.050;2022-08-01T05:04:57;1.25;;;0.40;;
51184;SDS011;37248;59.350;18.050;2022-08-01T05:07:22;1.23;;;0.50;;
51184;SDS011;37248;59.350;18.050;2022-08-01T05:09:47;0.90;;;0.60;;
51184;SDS011;37248;59.350;18.050;2022-08-01T05:12:13;0.87;;;0.40;;
51184;SDS011;37248;59.350;18.050;2022-08-01T05:14:38;0.97;;;0.50;;
51184;SDS011;37248;59.350;18.050;2022-08-01T05:17:04;0.77;;;0.45;;
51184;SDS011;37248;59.350;18.050;2022-08-01T05:19:30;0.75;;;0.47;;
51184;SDS011;37248;59.350;18.050;2022-08-01T05:21:58;0.80;;;0.50;;
51184;SDS011;37248;59.350;18.050;2022-08-01T05:24:25;0.75;;;0.50;;
51184;SDS011;37248;59.350;18.050;2022-08-01T05:26:51;0.90;;;0.63;;
51184;SDS011;37248;59.350;18.050;2022-08-01T05:29:16;0.50;;;0.40;;
51184;SDS011;37248;59.350;18.050;2022-08-01T05:31:41;0.60;;;0.40;;
51184;SDS011;37248;59.350;18.050;2022-08-01T05:34:06;0.80;;;0.47;;
51184;SDS011;37248;59.350;18.050;2022-08-01T05:36:32;1.00;;;0.60;;
51184;SDS011;37248;59.350;18.050;2022-08-01T05:38:57;0.60;;;0.40;;
51184;SDS011;37248;59.350;18.050;2022-08-01T05:41:22;0.77;;;0.38;;
51184;SDS011;37248;59.350;18.050;2022-08-01T05:43:47;0.33;;;0.30;;
51184;SDS011;37248;59.350;18.050;2022-08-01T05:46:13;1.00;;;0.50;;
51184;SDS011;37248;59.350;18.050;2022-08-01T05:48:38;0.53;;;0.40;;
51184;SDS011;37248;59.350;18.050;2022-08-01T05:51:03;0.80;;;0.40;;
51184;SDS011;37248;59.350;18.050;2022-08-01T05:53:29;0.83;;;0.50;;
51184;SDS011;37248;59.350;18.050;2022-08-01T05:55:54;1.33;;;0.60;;
51184;SDS011;37248;59.350;18.050;2022-08-01T05:58:20;0.95;;;0.43;;
51184;SDS011;37248;59.350;18.050;2022-08-01T06:00:45;0.43;;;0.33;;
51184;SDS011;37248;59.350;18.050;2022-08-01T06:03:10;1.27;;;0.40;;
51184;SDS011;37248;59.350;18.050;2022-08-01T06:05:36;0.80;;;0.60;;
51184;SDS011;37248;59.350;18.050;2022-08-01T06:08:01;1.07;;;0.57;;
51184;SDS011;37248;59.350;18.050;2022-08-01T06:10:27;1.27;;;0.50;;
51184;SDS011;37248;59.350;18.050;2022-08-01T06:12:52;0.83;;;0.40;;
51184;SDS011;37248;59.350;18.050;2022-08-01T06:15:17;1.50;;;0.60;;
51184;SDS011;37248;59.350;18.050;2022-08-01T06:17:42;1.00;;;0.50;;
51184;SDS011;37248;59.350;18.050;2022-08-01T06:20:08;0.50;;;0.40;;
51184;SDS011;37248;59.350;18.050;2022-08-01T06:22:33;1.90;;;0.53;;
51184;SDS011;37248;59.350;18.050;2022-08-01T06:24:58;1.07;;;0.40;;
51184;SDS011;37248;59.350;18.050;2022-08-01T06:27:24;0.53;;;0.50;;
51184;SDS011;37248;59.350;18.050;2022-08-01T06:29:51;1.30;;;0.50;;
51184;SDS011;37248;59.350;18.050;2022-08-01T06:32:18;1.27;;;0.40;;
51184;SDS011;37248;59.350;18.050;2022-08-01T06:34:43;1.30;;;0.60;;
51184;SDS011;37248;59.350;18.050;2022-08-01T06:37:09;0.80;;;0.40;;
51184;SDS011;37248;59.350;18.050;2022-08-01T06:39:34;0.93;;;0.40;;
51184;SDS011;37248;59.350;18.050;2022-08-01T06:41:59;0.80;;;0.40;;
51184;SDS011;37248;59.350;18.050;2022-08-01T06:44:24;0.87;;;0.43;;
51184;SDS011;37248;59.350;18.050;2022-08-01T06:46:50;0.90;;;0.47;;
51184;SDS011;37248;59.350;18.050;2022-08-01T06:49:15;0.70;;;0.40;;
51184;SDS011;37248;59.350;18.050;2022-08-01T06:51:40;0.70;;;0.40;;
51184;SDS011;37248;59.350;18.050;2022-08-01T06:54:05;0.50;;;0.40;;
51184;SDS011;37248;59.350;18.050;2022-08-01T06:56:31;0.63;;;0.40;;
51184;SDS011;37248;59.350;18.050;2022-08-01T06:58:56;0.50;;;0.30;;
51184;SDS011;37248;59.350;18.050;2022-08-01T07:01:26;0.90;;;0.50;;
51184;SDS011;37248;59.350;18.050;2022-08-01T07:03:51;0.65;;;0.40;;
51184;SDS011;37248;59.350;18.050;2022-08-01T07:06:17;0.93;;;0.50;;
51184;SDS011;37248;59.350;18.050;2022-08-01T07:08:42;0.60;;;0.40;;
51184;SDS011;37248;59.350;18.050;2022-08-01T07:11:08;1.00;;;0.40;;
51184;SDS011;37248;59.350;18.050;2022-08-01T07:13:33;0.87;;;0.40;;
51184;SDS011;37248;59.350;18.050;2022-08-01T07:15:58;0.70;;;0.40;;
51184;SDS011;37248;59.350;18.050;2022-08-01T07:18:24;0.60;;;0.40;;
51184;SDS011;37248;59.350;18.050;2022-08-01T07:20:49;0.80;;;0.40;;
51184;SDS011;37248;59.350;18.050;2022-08-01T07:23:15;1.10;;;0.60;;
51184;SDS011;37248;59.350;18.050;2022-08-01T07:25:40;0.73;;;0.40;;
51184;SDS011;37248;59.350;18.050;2022-08-01T07:28:06;1.30;;;0.50;;
51184;SDS011;37248;59.350;18.050;2022-08-01T07:30:31;0.55;;;0.35;;
51184;SDS011;37248;59.350;18.050;2022-08-01T07:32:56;0.80;;;0.50;;
51184;SDS011;37248;59.350;18.050;2022-08-01T07:35:22;1.10;;;0.50;;
51184;SDS011;37248;59.350;18.050;2022-08-01T07:37:47;1.00;;;0.60;;
51184;SDS011;37248;59.350;18.050;2022-08-01T07:40:12;0.73;;;0.50;;
51184;SDS011;37248;59.350;18.050;2022-08-01T07:42:38;1.33;;;0.40;;
51184;SDS011;37248;59.350;18.050;2022-08-01T07:45:03;0.73;;;0.43;;
51184;SDS011;37248;59.350;18.050;2022-08-01T07:47:28;0.60;;;0.40;;
51184;SDS011;37248;59.350;18.050;2022-08-01T07:50:00;0.73;;;0.40;;
51184;SDS011;37248;59.350;18.050;2022-08-01T07:52:25;0.77;;;0.50;;
51184;SDS011;37248;59.350;18.050;2022-08-01T07:54:51;0.77;;;0.50;;
51184;SDS011;37248;59.350;18.050;2022-08-01T07:57:17;1.20;;;0.47;;
51184;SDS011;37248;59.350;18.050;2022-08-01T07:59:42;0.90;;;0.30;;
51184;SDS011;37248;59.350;18.050;2022-08-01T08:02:07;1.13;;;0.40;;
51184;SDS011;37248;59.350;18.050;2022-08-01T08:04:32;1.03;;;0.70;;
51184;SDS011;37248;59.350;18.050;2022-08-01T08:06:58;0.77;;;0.47;;
51184;SDS011;37248;59.350;18.050;2022-08-01T08:09:23;0.90;;;0.40;;
51184;SDS011;37248;59.350;18.050;2022-08-01T08:11:48;1.53;;;0.40;;
51184;SDS011;37248;59.350;18.050;2022-08-01T08:14:14;1.23;;;0.40;;
51184;SDS011;37248;59.350;18.050;2022-08-01T08:16:39;1.25;;;0.47;;
51184;SDS011;37248;59.350;18.050;2022-08-01T08:19:05;0.70;;;0.40;;
51184;SDS011;37248;59.350;18.050;2022-08-01T08:21:30;0.90;;;0.50;;
51184;SDS011;37248;59.350;18.050;2022-08-01T08:23:55;1.30;;;0.40;;
51184;SDS011;37248;59.350;18.050;2022-08-01T08:26:39;0.80;;;0.40;;
51184;SDS011;37248;59.350;18.050;2022-08-01T08:29:05;1.00;;;0.50;;
51184;SDS011;37248;59.350;18.050;2022-08-01T08:31:30;0.73;;;0.50;;
51184;SDS011;37248;59.350;18.050;2022-08-01T08:33:55;1.53;;;0.60;;
51184;SDS011;37248;59.350;18.050;2022-08-01T08:36:20;0.60;;;0.30;;
51184;SDS011;37248;59.350;18.050;2022-08-01T08:38:46;0.63;;;0.40;;
51184;SDS011;37248;59.350;18.050;2022-08-01T08:41:11;0.73;;;0.50;;
51184;SDS011;37248;59.350;18.050;2022-08-01T08:43:36;0.70;;;0.40;;
51184;SDS011;37248;59.350;18.050;2022-08-01T08:46:02;1.00;;;0.40;;
51184;SDS011;37248;59.350;18.050;2022-08-01T08:48:27;1.30;;;0.47;;
51184;SDS011;37248;59.350;18.050;2022-08-01T08:50:53;0.70;;;0.40;;
51184;SDS011;37248;59.350;18.050;2022-08-01T08:53:18;0.60;;;0.47;;
51184;SDS011;37248;59.350;18.050;2022-08-01T08:55:43;0.70;;;0.40;;
51184;SDS011;37248;59.350;18.050;2022-08-01T08:58:11;0.77;;;0.43;;
51184;SDS011;37248;59.350;18.050;2022-08-01T09:00:37;0.70;;;0.40;;
51184;SDS011;37248;59.350;18.050;2022-08-01T09:03:03;0.90;;;0.50;;
51184;SDS011;37248;59.350;18.050;2022-08-01T09:05:28;1.40;;;0.50;;
51184;SDS011;37248;59.350;18.050;2022-08-01T09:07:54;0.70;;;0.50;;
51184;SDS011;37248;59.350;18.050;2022-08-01T09:10:19;1.20;;;0.50;;
51184;SDS011;37248;59.350;18.050;2022-08-01T09:15:38;0.90;;;0.50;;
51184;SDS011;37248;59.350;18.050;2022-08-01T09:18:04;0.70;;;0.45;;
51184;SDS011;37248;59.350;18.050;2022-08-01T09:20:30;0.70;;;0.40;;
51184;SDS011;37248;59.350;18.050;2022-08-01T09:22:55;0.60;;;0.40;;
51184;SDS011;37248;59.350;18.050;2022-08-01T09:25:20;0.87;;;0.53;;
51184;SDS011;37248;59.350;18.050;2022-08-01T09:27:46;0.50;;;0.40;;
51184;SDS011;37248;59.350;18.050;2022-08-01T09:30:12;0.50;;;0.40;;
51184;SDS011;37248;59.350;18.050;2022-08-01T09:35:26;0.80;;;0.50;;
51184;SDS011;37248;59.350;18.050;2022-08-01T09:37:55;0.93;;;0.40;;
51184;SDS011;37248;59.350;18.050;2022-08-01T09:40:57;0.43;;;0.30;;
51184;SDS011;37248;59.350;18.050;2022-08-01T09:43:22;0.70;;;0.40;;
51184;SDS011;37248;59.350;18.050;2022-08-01T09:45:48;0.80;;;0.50;;
51184;SDS011;37248;59.350;18.050;2022-08-01T09:48:13;0.87;;;0.50;;
51184;SDS011;37248;59.350;18.050;2022-08-01T09:50:44;0.90;;;0.50;;
51184;SDS011;37248;59.350;18.050;2022-08-01T09:53:10;0.88;;;0.57;;
51184;SDS011;37248;59.350;18.050;2022-08-01T09:55:39;0.80;;;0.50;;
51184;SDS011;37248;59.350;18.050;2022-08-01T09:58:05;0.70;;;0.50;;
51184;SDS011;37248;59.350;18.050;2022-08-01T10:00:31;1.08;;;0.60;;
51184;SDS011;37248;59.350;18.050;2022-08-01T10:02:57;1.00;;;0.60;;
51184;SDS011;37248;59.350;18.050;2022-08-01T10:05:32;0.57;;;0.55;;
51184;SDS011;37248;59.350;18.050;2022-08-01T10:08:01;0.82;;;0.63;;
51184;SDS011;37248;59.350;18.050;2022-08-01T10:10:28;1.80;;;0.65;;
51184;SDS011;37248;59.350;18.050;2022-08-01T10:12:53;0.90;;;0.60;;
51184;SDS011;37248;59.350;18.050;2022-08-01T10:15:20;1.17;;;0.60;;
51184;SDS011;37248;59.350;18.050;2022-08-01T10:17:52;1.10;;;0.60;;
51184;SDS011;37248;59.350;18.050;2022-08-01T10:20:19;1.17;;;0.70;;
51184;SDS011;37248;59.350;18.050;2022-08-01T10:22:45;0.82;;;0.70;;
51184;SDS011;37248;59.350;18.050;2022-08-01T10:25:11;0.88;;;0.70;;
51184;SDS011;37248;59.350;18.050;2022-08-01T10:27:41;1.50;;;0.77;;
51184;SDS011;37248;59.350;18.050;2022-08-01T10:30:07;0.80;;;0.50;;
51184;SDS011;37248;59.350;18.050;2022-08-01T10:32:34;0.77;;;0.60;;
51184;SDS011;37248;59.350;18.050;2022-08-01T10:35:00;0.88;;;0.60;;
51184;SDS011;37248;59.350;18.050;2022-08-01T10:37:26;1.05;;;0.80;;
51184;SDS011;37248;59.350;18.050;2022-08-01T10:39:51;0.67;;;0.57;;
51184;SDS011;37248;59.350;18.050;2022-08-01T10:42:17;1.30;;;0.80;;
51184;SDS011;37248;59.350;18.050;2022-08-01T10:44:43;1.17;;;0.60;;
51184;SDS011;37248;59.350;18.050;2022-08-01T10:47:11;1.10;;;0.60;;
51184;SDS011;37248;59.350;18.050;2022-08-01T10:50:11;0.68;;;0.60;;
51184;SDS011;37248;59.350;18.050;2022-08-01T10:52:22;1.33;;;0.68;;
51184;SDS011;37248;59.350;18.050;2022-08-01T10:54:48;1.57;;;0.60;;
51184;SDS011;37248;59.350;18.050;2022-08-01T10:57:13;1.10;;;0.60;;
51184;SDS011;37248;59.350;18.050;2022-08-01T10:59:48;0.63;;;0.43;;
51184;SDS011;37248;59.350;18.050;2022-08-01T11:02:24;0.77;;;0.52;;
51184;SDS011;37248;59.350;18.050;2022-08-01T11:07:45;1.40;;;0.60;;
51184;SDS011;37248;59.350;18.050;2022-08-01T11:12:46;1.13;;;0.60;;
51184;SDS011;37248;59.350;18.050;2022-08-01T11:17:43;0.80;;;0.60;;
51184;SDS011;37248;59.350;18.050;2022-08-01T11:20:15;0.80;;;0.60;;
51184;SDS011;37248;59.350;18.050;2022-08-01T11:30:43;1.00;;;0.70;;
51184;SDS011;37248;59.350;18.050;2022-08-01T11:33:09;0.80;;;0.68;;
51184;SDS011;37248;59.350;18.050;2022-08-01T11:35:36;1.23;;;0.70;;
51184;SDS011;37248;59.350;18.050;2022-08-01T11:40:46;2.70;;;0.60;;
51184;SDS011;37248;59.350;18.050;2022-08-01T11:45:46;1.70;;;0.70;;
51184;SDS011;37248;59.350;18.050;2022-08-01T11:48:19;0.95;;;0.60;;
51184;SDS011;37248;59.350;18.050;2022-08-01T11:50:44;0.87;;;0.50;;
51184;SDS011;37248;59.350;18.050;2022-08-01T11:53:10;1.20;;;0.63;;
51184;SDS011;37248;59.350;18.050;2022-08-01T11:55:35;1.60;;;0.70;;
51184;SDS011;37248;59.350;18.050;2022-08-01T11:58:01;0.60;;;0.50;;
51184;SDS011;37248;59.350;18.050;2022-08-01T12:00:27;0.90;;;0.60;;
51184;SDS011;37248;59.350;18.050;2022-08-01T12:05:24;0.90;;;0.60;;
51184;SDS011;37248;59.350;18.050;2022-08-01T12:07:50;1.00;;;0.60;;
51184;SDS011;37248;59.350;18.050;2022-08-01T12:10:17;0.65;;;0.50;;
51184;SDS011;37248;59.350;18.050;2022-08-01T12:15:08;1.67;;;0.57;;
51184;SDS011;37248;59.350;18.050;2022-08-01T12:17:43;0.80;;;0.60;;
51184;SDS011;37248;59.350;18.050;2022-08-01T12:20:12;1.10;;;0.60;;
51184;SDS011;37248;59.350;18.050;2022-08-01T12:22:38;0.70;;;0.55;;
51184;SDS011;37248;59.350;18.050;2022-08-01T12:25:07;0.87;;;0.60;;
51184;SDS011;37248;59.350;18.050;2022-08-01T12:27:32;0.80;;;0.50;;
51184;SDS011;37248;59.350;18.050;2022-08-01T12:29:58;1.00;;;0.50;;
51184;SDS011;37248;59.350;18.050;2022-08-01T12:32:28;0.60;;;0.50;;
51184;SDS011;37248;59.350;18.050;2022-08-01T12:34:54;1.65;;;0.77;;
51184;SDS011;37248;59.350;18.050;2022-08-01T12:37:21;0.87;;;0.50;;
51184;SDS011;37248;59.350;18.050;2022-08-01T12:39:46;1.60;;;0.50;;
51184;SDS011;37248;59.350;18.050;2022-08-01T12:42:12;0.77;;;0.60;;
51184;SDS011;37248;59.350;18.050;2022-08-01T12:44:37;1.30;;;0.60;;
51184;SDS011;37248;59.350;18.050;2022-08-01T12:47:06;1.30;;;0.50;;
51184;SDS011;37248;59.350;18.050;2022-08-01T12:49:35;0.90;;;0.50;;
51184;SDS011;37248;59.350;18.050;2022-08-01T12:52:01;0.88;;;0.65;;
51184;SDS011;37248;59.350;18.050;2022-08-01T12:54:26;1.40;;;0.60;;
51184;SDS011;37248;59.350;18.050;2022-08-01T12:56:52;0.50;;;0.40;;
51184;SDS011;37248;59.350;18.050;2022-08-01T12:59:22;0.67;;;0.50;;
51184;SDS011;37248;59.350;18.050;2022-08-01T13:01:50;1.00;;;0.50;;
51184;SDS011;37248;59.350;18.050;2022-08-01T13:04:15;0.60;;;0.40;;
51184;SDS011;37248;59.350;18.050;2022-08-01T13:06:40;1.40;;;0.50;;
51184;SDS011;37248;59.350;18.050;2022-08-01T13:09:07;0.80;;;0.60;;
51184;SDS011;37248;59.350;18.050;2022-08-01T13:11:32;0.80;;;0.60;;
51184;SDS011;37248;59.350;18.050;2022-08-01T13:13:57;0.67;;;0.47;;
51184;SDS011;37248;59.350;18.050;2022-08-01T13:16:24;0.70;;;0.50;;
51184;SDS011;37248;59.350;18.050;2022-08-01T13:18:53;0.82;;;0.52;;
51184;SDS011;37248;59.350;18.050;2022-08-01T13:29:05;0.75;;;0.45;;
51184;SDS011;37248;59.350;18.050;2022-08-01T13:31:34;1.17;;;0.68;;
51184;SDS011;37248;59.350;18.050;2022-08-01T13:33:59;2.42;;;0.75;;
51184;SDS011;37248;59.350;18.050;2022-08-01T13:36:24;0.80;;;0.47;;
51184;SDS011;37248;59.350;18.050;2022-08-01T13:38:52;0.60;;;0.50;;
51184;SDS011;37248;59.350;18.050;2022-08-01T13:41:36;1.20;;;0.60;;
51184;SDS011;37248;59.350;18.050;2022-08-01T13:44:01;1.27;;;0.68;;
51184;SDS011;37248;59.350;18.050;2022-08-01T13:46:26;0.57;;;0.43;;
51184;SDS011;37248;59.350;18.050;2022-08-01T13:48:51;0.80;;;0.60;;
51184;SDS011;37248;59.350;18.050;2022-08-01T13:51:17;2.27;;;0.60;;
51184;SDS011;37248;59.350;18.050;2022-08-01T13:53:42;0.70;;;0.40;;
51184;SDS011;37248;59.350;18.050;2022-08-01T13:56:07;0.80;;;0.57;;
51184;SDS011;37248;59.350;18.050;2022-08-01T13:58:32;0.70;;;0.50;;
51184;SDS011;37248;59.350;18.050;2022-08-01T14:00:58;0.50;;;0.50;;
51184;SDS011;37248;59.350;18.050;2022-08-01T14:03:23;0.90;;;0.60;;
51184;SDS011;37248;59.350;18.050;2022-08-01T14:05:49;1.23;;;0.40;;
51184;SDS011;37248;59.350;18.050;2022-08-01T14:08:14;1.33;;;0.50;;
51184;SDS011;37248;59.350;18.050;2022-08-01T14:10:39;0.90;;;0.60;;
51184;SDS011;37248;59.350;18.050;2022-08-01T14:13:05;0.70;;;0.50;;
51184;SDS011;37248;59.350;18.050;2022-08-01T14:15:30;0.90;;;0.60;;
51184;SDS011;37248;59.350;18.050;2022-08-01T14:17:56;0.90;;;0.60;;
51184;SDS011;37248;59.350;18.050;2022-08-01T14:20:21;0.80;;;0.50;;
51184;SDS011;37248;59.350;18.050;2022-08-01T14:22:46;0.80;;;0.50;;
51184;SDS011;37248;59.350;18.050;2022-08-01T14:25:12;0.77;;;0.50;;
51184;SDS011;37248;59.350;18.050;2022-08-01T14:27:38;1.00;;;0.50;;
51184;SDS011;37248;59.350;18.050;2022-08-01T14:30:05;0.70;;;0.52;;
51184;SDS011;37248;59.350;18.050;2022-08-01T14:32:31;0.60;;;0.43;;
51184;SDS011;37248;59.350;18.050;2022-08-01T14:34:58;0.70;;;0.60;;
51184;SDS011;37248;59.350;18.050;2022-08-01T14:37:23;1.00;;;0.57;;
51184;SDS011;37248;59.350;18.050;2022-08-01T14:39:48;0.50;;;0.40;;
51184;SDS011;37248;59.350;18.050;2022-08-01T14:42:14;0.40;;;0.40;;
51184;SDS011;37248;59.350;18.050;2022-08-01T14:44:39;0.70;;;0.50;;
51184;SDS011;37248;59.350;18.050;2022-08-01T14:47:04;1.40;;;0.70;;
51184;SDS011;37248;59.350;18.050;2022-08-01T14:49:29;0.70;;;0.60;;
51184;SDS011;37248;59.350;18.050;2022-08-01T14:51:55;0.88;;;0.50;;
51184;SDS011;37248;59.350;18.050;2022-08-01T14:54:20;1.70;;;0.77;;
51184;SDS011;37248;59.350;18.050;2022-08-01T14:56:45;0.70;;;0.60;;
51184;SDS011;37248;59.350;18.050;2022-08-01T14:59:11;1.03;;;0.43;;
51184;SDS011;37248;59.350;18.050;2022-08-01T15:01:36;0.63;;;0.37;;
51184;SDS011;37248;59.350;18.050;2022-08-01T15:04:01;0.60;;;0.40;;
51184;SDS011;37248;59.350;18.050;2022-08-01T15:06:26;1.10;;;0.53;;
51184;SDS011;37248;59.350;18.050;2022-08-01T15:08:52;1.13;;;0.50;;
51184;SDS011;37248;59.350;18.050;2022-08-01T15:11:17;1.20;;;0.50;;
51184;SDS011;37248;59.350;18.050;2022-08-01T15:13:42;0.60;;;0.50;;
51184;SDS011;37248;59.350;18.050;2022-08-01T15:16:07;0.93;;;0.60;;
51184;SDS011;37248;59.350;18.050;2022-08-01T15:18:33;0.73;;;0.40;;
51184;SDS011;37248;59.350;18.050;2022-08-01T15:20:58;0.57;;;0.40;;